createdAt,value
2022-09-15T00:02:13.188Z,4.47
2022-09-15T00:04:39.730Z,3.53
2022-09-15T00:07:06.204Z,1.80
2022-09-15T00:09:32.908Z,3.00
2022-09-15T00:11:59.294Z,1.63
2022-09-15T00:16:51.993Z,1.85
2022-09-15T00:19:18.380Z,1.67
2022-09-15T00:24:11.087Z,4.57
2022-09-15T00:29:04.512Z,3.95
2022-09-15T00:31:32.171Z,4.22
2022-09-15T00:34:02.387Z,3.63
2022-09-15T00:36:29.195Z,2.90
2022-09-15T00:38:56.533Z,2.72
2022-09-15T00:41:24.255Z,7.05
2022-09-15T00:43:59.598Z,5.75
2022-09-15T00:46:30.730Z,3.45
2022-09-15T00:49:09.387Z,3.58
2022-09-15T00:51:42.616Z,3.25
2022-09-15T00:54:17.630Z,4.50
2022-09-15T00:56:47.848Z,6.50
2022-09-15T00:59:21.390Z,4.30
2022-09-15T01:01:54.351Z,2.20
2022-09-15T01:04:20.803Z,6.75
2022-09-15T01:06:52.463Z,2.92
2022-09-15T01:09:31.562Z,5.60
2022-09-15T01:11:58.071Z,3.78
2022-09-15T01:14:24.496Z,6.95
2022-09-15T01:19:52.839Z,7.47
2022-09-15T01:22:56.775Z,9.57
2022-09-15T01:25:50.998Z,8.30
2022-09-15T01:28:43.775Z,5.82
2022-09-15T01:31:20.290Z,6.88
2022-09-15T01:33:54.807Z,4.15
2022-09-15T01:36:32.073Z,6.88
2022-09-15T01:39:13.645Z,3.90
2022-09-15T01:41:50.702Z,3.88
2022-09-15T01:44:28.961Z,6.45
2022-09-15T01:47:00.049Z,3.65
2022-09-15T01:49:31.278Z,3.83
2022-09-15T01:51:57.661Z,7.18
2022-09-15T01:56:52.907Z,4.55
2022-09-15T02:01:58.813Z,4.35
2022-09-15T02:04:34.749Z,5.28
2022-09-15T02:07:21.072Z,4.00
2022-09-15T02:09:54.621Z,6.50
2022-09-15T02:12:39.165Z,5.22
2022-09-15T02:15:20.762Z,2.55
2022-09-15T02:17:54.128Z,1.95
2022-09-15T02:20:34.178Z,3.45
2022-09-15T02:23:08.360Z,2.17
2022-09-15T02:25:41.125Z,2.90
2022-09-15T02:28:11.726Z,2.15
2022-09-15T02:30:41.858Z,1.58
2022-09-15T02:33:15.838Z,2.53
2022-09-15T02:35:43.490Z,3.15
2022-09-15T02:38:11.982Z,2.90
2022-09-15T02:40:43.686Z,2.55
2022-09-15T02:43:16.038Z,2.20
2022-09-15T02:45:43.294Z,2.60
2022-09-15T02:48:09.777Z,2.38
2022-09-15T02:50:37.380Z,1.27
2022-09-15T02:53:04.332Z,2.40
2022-09-15T02:55:30.863Z,1.13
2022-09-15T02:57:57.686Z,1.42
2022-09-15T03:00:24.896Z,2.33
2022-09-15T03:02:53.620Z,3.58
2022-09-15T03:05:28.577Z,2.03
2022-09-15T03:07:56.282Z,3.15
2022-09-15T03:10:24.653Z,1.35
2022-09-15T03:12:53.506Z,2.03
2022-09-15T03:15:23.955Z,4.13
2022-09-15T03:17:51.052Z,3.15
2022-09-15T03:20:28.017Z,3.53
2022-09-15T03:25:21.220Z,1.87
2022-09-15T03:27:47.794Z,4.00
2022-09-15T03:30:14.511Z,4.53
2022-09-15T03:32:40.985Z,1.45
2022-09-15T03:37:34.614Z,2.70
2022-09-15T03:40:01.163Z,2.50
2022-09-15T03:42:27.892Z,1.40
2022-09-15T03:44:54.313Z,3.90
2022-09-15T03:49:47.527Z,2.42
2022-09-15T03:52:14.071Z,3.38
2022-09-15T03:54:40.568Z,4.95
2022-09-15T03:57:07.078Z,2.78
2022-09-15T04:01:59.792Z,3.20
2022-09-15T04:06:53.127Z,5.47
2022-09-15T04:09:20.460Z,1.98
2022-09-15T04:11:47.535Z,3.30
2022-09-15T04:14:13.909Z,3.05
2022-09-15T04:19:07.412Z,2.35
2022-09-15T04:21:33.936Z,3.08
2022-09-15T04:26:32.357Z,2.55
2022-09-15T04:29:03.960Z,6.00
2022-09-15T04:31:32.181Z,5.65
2022-09-15T04:33:59.309Z,2.85
2022-09-15T04:36:28.196Z,3.05
2022-09-15T04:38:55.550Z,2.65
2022-09-15T04:41:23.587Z,4.35
2022-09-15T04:43:50.549Z,3.65
2022-09-15T04:46:18.506Z,2.85
2022-09-15T04:48:46.091Z,2.60
2022-09-15T04:51:15.780Z,4.18
2022-09-15T04:53:43.666Z,3.97
2022-09-15T04:56:13.490Z,3.15
2022-09-15T04:58:42.723Z,4.95
2022-09-15T05:01:23.393Z,1.98
2022-09-15T05:03:50.122Z,1.98
2022-09-15T05:06:19.738Z,2.75
2022-09-15T05:08:51.274Z,3.33
2022-09-15T05:11:18.811Z,3.15
2022-09-15T05:13:45.691Z,4.60
2022-09-15T05:16:18.273Z,1.50
2022-09-15T05:18:46.601Z,4.13
2022-09-15T05:21:15.720Z,3.60
2022-09-15T05:23:42.510Z,2.78
2022-09-15T05:26:12.632Z,2.30
2022-09-15T05:28:39.549Z,2.33
2022-09-15T05:31:17.681Z,3.60
2022-09-15T05:33:45.732Z,3.83
2022-09-15T05:36:14.899Z,2.42
2022-09-15T05:38:41.363Z,2.45
2022-09-15T05:43:37.835Z,1.90
2022-09-15T05:46:05.463Z,2.88
2022-09-15T05:48:32.223Z,2.75
2022-09-15T05:50:59.114Z,1.98
2022-09-15T05:53:30.872Z,1.40
2022-09-15T05:55:59.856Z,2.95
2022-09-15T05:58:27.449Z,3.97
2022-09-15T06:00:55.026Z,2.05
2022-09-15T06:03:22.595Z,8.65
2022-09-15T06:05:59.674Z,4.07
2022-09-15T06:08:30.859Z,3.05
2022-09-15T06:11:02.611Z,2.50
2022-09-15T06:13:29.302Z,3.08
2022-09-15T06:16:01.472Z,1.98
2022-09-15T06:18:28.220Z,2.97
2022-09-15T06:20:54.712Z,2.65
2022-09-15T06:25:47.503Z,2.63
2022-09-15T06:30:41.217Z,4.43
2022-09-15T06:35:35.400Z,2.35
2022-09-15T06:40:28.361Z,4.38
2022-09-15T06:42:56.876Z,2.40
2022-09-15T06:45:23.220Z,1.98
2022-09-15T06:48:13.333Z,2.45
2022-09-15T06:50:38.292Z,2.25
2022-09-15T06:55:31.022Z,2.72
2022-09-15T07:00:23.811Z,2.40
2022-09-15T07:02:50.264Z,3.55
2022-09-15T07:05:16.971Z,2.40
2022-09-15T07:07:43.679Z,2.67
2022-09-15T07:10:10.051Z,5.50
2022-09-15T07:12:37.116Z,3.63
2022-09-15T07:15:03.850Z,3.65
2022-09-15T07:17:30.263Z,4.07
2022-09-15T07:22:24.599Z,5.28
2022-09-15T07:24:50.962Z,3.45
2022-09-15T07:27:17.328Z,3.38
2022-09-15T07:32:10.215Z,5.53
2022-09-15T07:37:03.058Z,5.82
2022-09-15T07:41:55.714Z,4.65
2022-09-15T07:46:48.350Z,4.60
2022-09-15T07:49:14.745Z,3.95
2022-09-15T07:54:07.480Z,5.40
2022-09-15T07:56:34.152Z,28.13
2022-09-15T07:59:00.578Z,5.32
2022-09-15T08:03:53.956Z,2.67
2022-09-15T08:06:25.378Z,3.15
2022-09-15T08:08:56.288Z,4.88
2022-09-15T08:11:26.564Z,4.68
2022-09-15T08:13:52.979Z,5.28
2022-09-15T08:16:22.038Z,6.00
2022-09-15T08:18:49.628Z,5.18
2022-09-15T08:21:20.196Z,4.40
2022-09-15T08:23:51.572Z,6.43
2022-09-15T08:26:18.599Z,5.03
2022-09-15T08:28:44.982Z,7.10
2022-09-15T08:31:13.299Z,4.68
2022-09-15T08:33:45.253Z,5.53
2022-09-15T08:36:13.030Z,3.38
2022-09-15T08:38:41.425Z,3.53
2022-09-15T08:41:27.410Z,3.40
2022-09-15T08:44:02.684Z,3.88
2022-09-15T08:46:39.301Z,4.70
2022-09-15T08:49:51.071Z,3.10
2022-09-15T08:52:44.092Z,4.63
2022-09-15T08:55:36.901Z,4.07
2022-09-15T08:58:05.065Z,2.85
2022-09-15T09:00:32.521Z,3.67
2022-09-15T09:03:32.208Z,3.22
2022-09-15T09:06:03.242Z,2.17
2022-09-15T09:08:41.975Z,4.78
2022-09-15T09:11:24.703Z,2.30
2022-09-15T09:14:18.688Z,2.60
2022-09-15T09:17:26.583Z,3.22
2022-09-15T09:20:20.167Z,2.38
2022-09-15T09:22:50.155Z,3.75
2022-09-15T09:25:27.101Z,3.50
2022-09-15T09:27:54.659Z,3.38
2022-09-15T09:30:23.575Z,2.28
2022-09-15T09:33:13.142Z,2.65
2022-09-15T09:35:53.731Z,2.70
2022-09-15T09:38:27.427Z,3.10
2022-09-15T09:40:57.485Z,4.55
2022-09-15T09:43:28.433Z,3.35
2022-09-15T09:45:55.126Z,3.42
2022-09-15T09:48:24.033Z,3.80
2022-09-15T09:50:50.911Z,2.55
2022-09-15T09:53:33.797Z,4.15
2022-09-15T09:56:12.524Z,3.35
2022-09-15T09:58:39.051Z,2.05
2022-09-15T10:01:15.866Z,5.03
2022-09-15T10:06:23.055Z,4.53
2022-09-15T10:09:05.186Z,2.35
2022-09-15T10:11:46.735Z,1.88
2022-09-15T10:14:40.400Z,4.00
2022-09-15T10:17:14.053Z,4.82
2022-09-15T10:19:52.570Z,4.38
2022-09-15T10:22:34.311Z,2.08
2022-09-15T10:25:03.340Z,2.40
2022-09-15T10:27:32.708Z,3.70
2022-09-15T10:30:16.526Z,2.13
2022-09-15T10:32:43.186Z,3.33
2022-09-15T10:35:10.251Z,1.85
2022-09-15T10:38:08.816Z,2.25
2022-09-15T10:40:55.824Z,2.60
2022-09-15T10:43:44.344Z,2.03
2022-09-15T10:46:18.799Z,3.22
2022-09-15T10:49:09.873Z,4.18
2022-09-15T10:52:10.775Z,2.45
2022-09-15T10:54:48.504Z,1.85
2022-09-15T10:57:28.456Z,2.58
2022-09-15T11:00:11.873Z,2.22
2022-09-15T11:02:55.244Z,3.15
2022-09-15T11:05:52.892Z,3.10
2022-09-15T11:09:02.118Z,3.63
2022-09-15T11:11:59.608Z,3.70
2022-09-15T11:14:40.876Z,3.88
2022-09-15T11:17:34.878Z,4.55
2022-09-15T11:20:34.579Z,4.65
2022-09-15T11:23:15.406Z,3.40
2022-09-15T11:25:45.131Z,2.30
2022-09-15T11:28:18.548Z,2.50
2022-09-15T11:30:55.243Z,2.80
2022-09-15T11:33:29.459Z,5.28
2022-09-15T11:36:06.513Z,4.00
2022-09-15T11:41:10.887Z,4.13
2022-09-15T11:43:52.944Z,5.25
2022-09-15T11:46:29.965Z,7.45
2022-09-15T11:49:13.803Z,4.32
2022-09-15T11:51:50.624Z,4.78
2022-09-15T11:54:34.297Z,3.40
2022-09-15T11:57:00.795Z,1.52
2022-09-15T12:02:39.988Z,3.63
2022-09-15T12:05:19.500Z,1.63
2022-09-15T12:08:01.027Z,1.25
2022-09-15T12:10:31.720Z,2.35
2022-09-15T12:13:00.712Z,1.15
2022-09-15T12:15:27.373Z,1.88
2022-09-15T12:18:10.861Z,1.23
2022-09-15T12:20:57.887Z,1.73
2022-09-15T12:23:41.684Z,1.10
2022-09-15T12:26:20.092Z,3.28
2022-09-15T12:28:46.529Z,3.05
2022-09-15T12:34:03.813Z,1.15
2022-09-15T12:36:32.759Z,3.03
2022-09-15T12:39:00.635Z,1.65
2022-09-15T12:41:28.073Z,1.73
2022-09-15T12:43:57.582Z,1.20
2022-09-15T12:46:25.257Z,2.45
2022-09-15T12:48:59.149Z,3.78
2022-09-15T12:51:28.150Z,2.70
2022-09-15T12:54:07.364Z,1.98
2022-09-15T12:56:35.044Z,1.92
2022-09-15T12:59:07.171Z,0.85
2022-09-15T13:01:47.696Z,1.15
2022-09-15T13:04:25.622Z,1.90
2022-09-15T13:07:17.220Z,3.70
2022-09-15T13:09:55.347Z,1.50
2022-09-15T13:12:26.273Z,3.28
2022-09-15T13:14:55.842Z,1.50
2022-09-15T13:17:25.534Z,2.50
2022-09-15T13:19:59.725Z,1.85
2022-09-15T13:22:45.255Z,2.53
2022-09-15T13:25:13.744Z,3.80
2022-09-15T13:28:11.748Z,3.40
2022-09-15T13:35:02.345Z,1.33
2022-09-15T13:38:04.391Z,3.88
2022-09-15T13:39:46.956Z,3.25
2022-09-15T13:42:35.484Z,1.77
2022-09-15T13:45:07.800Z,1.55
2022-09-15T13:47:43.320Z,2.22
2022-09-15T13:50:40.219Z,1.52
2022-09-15T13:53:26.510Z,3.25
2022-09-15T13:55:56.047Z,1.50
2022-09-15T14:01:12.978Z,2.67
2022-09-15T14:04:07.241Z,4.78
2022-09-15T14:06:37.659Z,3.25
2022-09-15T14:09:43.326Z,3.03
2022-09-15T14:12:12.739Z,4.30
2022-09-15T14:14:44.897Z,2.53
2022-09-15T14:17:24.894Z,1.73
2022-09-15T14:19:54.592Z,4.22
2022-09-15T14:22:20.925Z,2.60
2022-09-15T14:24:47.547Z,3.45
2022-09-15T14:27:22.115Z,4.68
2022-09-15T14:29:51.075Z,2.58
2022-09-15T14:32:18.121Z,3.13
2022-09-15T14:34:45.665Z,2.75
2022-09-15T14:37:15.856Z,3.17
2022-09-15T14:39:49.346Z,2.72
2022-09-15T14:42:21.755Z,3.38
2022-09-15T14:47:35.781Z,4.20
2022-09-15T14:50:12.104Z,4.22
2022-09-15T14:52:41.565Z,3.75
2022-09-15T14:55:15.415Z,3.17
2022-09-15T14:57:48.800Z,3.00
2022-09-15T15:00:22.344Z,4.57
2022-09-15T15:03:03.826Z,6.20
2022-09-15T15:05:40.464Z,2.35
2022-09-15T15:10:36.644Z,8.45
2022-09-15T15:13:09.575Z,3.63
2022-09-15T15:15:37.961Z,4.05
2022-09-15T15:18:45.012Z,3.33
2022-09-15T15:21:38.591Z,2.63
2022-09-15T15:24:18.858Z,5.78
2022-09-15T15:26:48.875Z,3.60
2022-09-15T15:29:43.302Z,2.13
2022-09-15T15:32:36.314Z,2.35
2022-09-15T15:35:03.953Z,3.92
2022-09-15T15:37:33.761Z,3.92
2022-09-15T15:40:04.350Z,4.03
2022-09-15T15:42:30.964Z,5.30
2022-09-15T15:45:04.135Z,7.97
2022-09-15T15:47:36.874Z,5.05
2022-09-15T15:50:15.740Z,6.32
2022-09-15T15:52:42.327Z,3.67
2022-09-15T15:55:13.478Z,4.55
2022-09-15T15:57:39.925Z,4.32
2022-09-15T16:02:48.886Z,4.15
2022-09-15T16:05:15.400Z,4.35
2022-09-15T16:07:45.052Z,6.20
2022-09-15T16:10:16.853Z,4.95
2022-09-15T16:12:43.405Z,3.70
2022-09-15T16:15:15.206Z,4.03
2022-09-15T16:17:45.968Z,4.13
2022-09-15T16:20:15.679Z,4.53
2022-09-15T16:22:42.338Z,5.15
2022-09-15T16:25:28.612Z,5.45
2022-09-15T16:27:55.270Z,5.00
2022-09-15T16:30:21.645Z,4.43
2022-09-15T16:38:25.769Z,5.57
2022-09-15T16:40:52.272Z,20.45
2022-09-15T16:43:23.341Z,4.82
2022-09-15T16:45:51.083Z,4.90
2022-09-15T16:48:17.855Z,4.55
2022-09-15T16:51:01.240Z,5.15
2022-09-15T16:53:32.591Z,7.13
2022-09-15T16:55:59.093Z,4.97
2022-09-15T17:00:52.805Z,4.35
2022-09-15T17:03:21.744Z,8.00
2022-09-15T17:05:56.078Z,7.70
2022-09-15T17:08:25.568Z,3.72
2022-09-15T17:10:52.899Z,9.02
2022-09-15T17:13:23.981Z,5.35
2022-09-15T17:15:56.222Z,5.85
2022-09-15T17:18:23.371Z,7.10
2022-09-15T17:20:50.880Z,4.38
2022-09-15T17:23:24.772Z,6.53
2022-09-15T17:25:53.672Z,5.50
2022-09-15T17:28:22.824Z,6.13
2022-09-15T17:30:51.942Z,7.00
2022-09-15T17:33:20.121Z,6.38
2022-09-15T17:35:47.663Z,4.95
2022-09-15T17:38:15.163Z,7.50
2022-09-15T17:40:47.824Z,6.55
2022-09-15T17:43:17.509Z,7.50
2022-09-15T17:45:44.404Z,6.25
2022-09-15T17:48:11.914Z,7.78
2022-09-15T17:50:48.787Z,10.65
2022-09-15T17:53:26.497Z,7.75
2022-09-15T17:55:54.681Z,7.22
2022-09-15T17:58:22.186Z,6.05
2022-09-15T18:00:49.525Z,7.85
2022-09-15T18:03:19.880Z,6.72
2022-09-15T18:05:46.587Z,9.20
2022-09-15T18:08:13.283Z,6.28
2022-09-15T18:10:40.066Z,7.95
2022-09-15T18:13:07.440Z,8.75
2022-09-15T18:15:35.316Z,6.47
2022-09-15T18:18:04.366Z,5.88
2022-09-15T18:20:32.845Z,7.97
2022-09-15T18:23:00.085Z,8.95
2022-09-15T18:25:33.519Z,8.65
2022-09-15T18:28:04.249Z,9.90
2022-09-15T18:30:36.401Z,9.07
2022-09-15T18:33:03.116Z,6.22
2022-09-15T18:35:29.557Z,7.75
2022-09-15T18:40:24.602Z,9.05
2022-09-15T18:42:51.762Z,5.13
2022-09-15T18:45:18.972Z,5.32
2022-09-15T18:47:50.311Z,7.85
2022-09-15T18:50:19.149Z,8.15
2022-09-15T18:52:45.789Z,11.45
2022-09-15T18:55:18.959Z,7.07
2022-09-15T18:57:46.233Z,7.25
2022-09-15T19:00:19.347Z,6.40
2022-09-15T19:02:46.440Z,12.23
2022-09-15T19:05:15.513Z,7.60
2022-09-15T19:07:43.319Z,6.35
2022-09-15T19:10:11.311Z,6.18
2022-09-15T19:12:38.583Z,7.32
2022-09-15T19:15:10.765Z,6.65
2022-09-15T19:17:39.384Z,6.80
2022-09-15T19:20:07.498Z,7.53
2022-09-15T19:22:35.327Z,6.45
2022-09-15T19:25:02.223Z,6.05
2022-09-15T19:27:28.716Z,10.77
2022-09-15T19:32:22.128Z,6.82
2022-09-15T19:34:49.156Z,4.70
2022-09-15T19:37:18.979Z,6.82
2022-09-15T19:39:46.933Z,7.88
2022-09-15T19:44:45.956Z,7.40
2022-09-15T19:47:12.426Z,10.00
2022-09-15T19:52:06.314Z,10.02
2022-09-15T19:54:34.315Z,6.78
2022-09-15T19:57:00.779Z,6.18
2022-09-15T19:59:30.995Z,8.23
2022-09-15T20:01:58.882Z,6.57
2022-09-15T20:04:25.314Z,10.30
2022-09-15T20:06:51.835Z,7.40
2022-09-15T20:11:44.934Z,7.47
2022-09-15T20:14:11.921Z,8.13
2022-09-15T20:16:38.542Z,7.57
2022-09-15T20:19:05.613Z,10.10
2022-09-15T20:21:51.115Z,10.15
2022-09-15T20:24:19.771Z,8.05
2022-09-15T20:26:46.262Z,9.10
2022-09-15T20:31:40.088Z,7.50
2022-09-15T20:34:06.527Z,9.35
2022-09-15T20:36:36.293Z,6.85
2022-09-15T20:39:06.061Z,8.77
2022-09-15T20:41:32.459Z,9.60
2022-09-15T20:44:00.116Z,7.43
2022-09-15T20:46:28.821Z,8.27
2022-09-15T20:48:55.229Z,6.47
2022-09-15T20:51:24.294Z,10.02
2022-09-15T20:53:52.852Z,9.95
2022-09-15T20:56:24.729Z,13.18
2022-09-15T20:58:53.059Z,8.95
2022-09-15T21:01:25.031Z,10.82
2022-09-15T21:03:51.604Z,10.32
2022-09-15T21:08:47.799Z,9.60
2022-09-15T21:11:14.741Z,9.00
2022-09-15T21:13:43.266Z,8.07
2022-09-15T21:16:15.572Z,7.70
2022-09-15T21:18:43.614Z,7.80
2022-09-15T21:21:14.882Z,8.65
2022-09-15T21:23:49.454Z,9.13
2022-09-15T21:26:21.324Z,7.93
2022-09-15T21:28:48.660Z,9.30
2022-09-15T21:31:18.224Z,6.80
2022-09-15T21:33:46.526Z,8.25
2022-09-15T21:36:22.306Z,6.78
2022-09-15T21:38:50.287Z,10.93
2022-09-15T21:41:20.737Z,10.50
2022-09-15T21:43:48.293Z,8.63
2022-09-15T21:46:19.792Z,8.27
2022-09-15T21:48:47.430Z,12.98
2022-09-15T21:51:16.841Z,10.32
2022-09-15T21:53:46.463Z,7.93
2022-09-15T21:56:13.248Z,11.40
2022-09-15T21:58:42.896Z,8.68
2022-09-15T22:01:22.671Z,8.32
2022-09-15T22:03:51.674Z,9.52
2022-09-15T22:06:20.298Z,10.90
2022-09-15T22:08:47.220Z,9.35
2022-09-15T22:11:14.134Z,8.10
2022-09-15T22:13:43.474Z,9.73
2022-09-15T22:16:18.196Z,8.48
2022-09-15T22:18:45.744Z,9.73
2022-09-15T22:21:14.874Z,8.82
2022-09-15T22:23:42.580Z,12.52
2022-09-15T22:26:15.947Z,9.40
2022-09-15T22:28:42.727Z,8.27
2022-09-15T22:31:11.698Z,9.88
2022-09-15T22:33:40.876Z,11.23
2022-09-15T22:36:12.141Z,7.82
2022-09-15T22:38:38.842Z,8.98
2022-09-15T22:41:08.903Z,9.95
2022-09-15T22:43:36.253Z,10.77
2022-09-15T22:46:03.059Z,10.23
2022-09-15T22:48:29.709Z,8.82
2022-09-15T22:53:23.398Z,8.02
2022-09-15T22:56:04.863Z,9.13
2022-09-15T22:58:33.080Z,12.43
2022-09-15T23:01:10.083Z,7.97
2022-09-15T23:06:04.221Z,9.35
2022-09-15T23:08:31.463Z,7.68
2022-09-15T23:11:02.699Z,8.95
2022-09-15T23:13:29.476Z,9.48
2022-09-15T23:15:55.909Z,7.57
2022-09-15T23:18:22.368Z,7.70
2022-09-15T23:20:55.657Z,8.00
2022-09-15T23:23:22.109Z,9.15
2022-09-15T23:25:48.469Z,10.00
2022-09-15T23:28:14.948Z,7.82
2022-09-15T23:30:41.341Z,7.85
2022-09-15T23:33:07.704Z,9.80
2022-09-15T23:35:35.547Z,9.07
2022-09-15T23:38:02.458Z,7.68
2022-09-15T23:40:29.528Z,10.15
2022-09-15T23:42:55.941Z,9.13
2022-09-15T23:45:22.307Z,10.60
2022-09-15T23:47:48.973Z,8.18
2022-09-15T23:50:15.424Z,10.10
2022-09-15T23:52:41.824Z,8.07
2022-09-15T23:55:08.781Z,8.00
2022-09-15T23:57:35.262Z,8.98
